Time;durP1;ratioP1;P1;durP2;ratioP2;P2;SDS_P1;SDS_P2;PMS_P1;PMS_P2;Temp;Humidity;BMP_temperature;BMP_pressure;BME280_temperature;BME280_humidity;BME280_pressure;Samples;Min_cycle;Max_cycle;Signal;HPM_P1;HPM_P2
2023/09/14 00:01:17;;;;;;;1.23;0.80;;;19.30;1.00;;;;;;5095358;28;20524;-65
2023/09/14 00:03:44;;;;;;;1.83;0.80;;;19.30;1.00;;;;;;5095355;28;20421;-65
2023/09/14 00:06:11;;;;;;;1.40;0.80;;;19.30;1.00;;;;;;5095190;28;20837;-64
2023/09/14 00:08:38;;;;;;;1.35;0.80;;;19.20;1.00;;;;;;5094928;28;20858;-65
2023/09/14 00:11:06;;;;;;;1.40;0.80;;;19.20;1.00;;;;;;5095461;28;20421;-65
2023/09/14 00:13:33;;;;;;;1.20;0.80;;;19.20;1.00;;;;;;5094859;28;20516;-64
2023/09/14 00:16:02;;;;;;;1.63;0.80;;;19.20;1.00;;;;;;5095330;28;20414;-66
2023/09/14 00:18:29;;;;;;;2.00;0.90;;;19.20;1.00;;;;;;5095115;28;20422;-65
2023/09/14 00:20:57;;;;;;;2.80;0.90;;;19.20;1.00;;;;;;5094804;28;20440;-65
2023/09/14 00:23:24;;;;;;;2.00;0.88;;;19.20;1.00;;;;;;5095206;28;20425;-65
2023/09/14 00:25:52;;;;;;;1.40;0.80;;;19.10;1.00;;;;;;5095496;28;20457;-65
2023/09/14 00:28:19;;;;;;;1.20;0.80;;;19.10;1.00;;;;;;5094836;28;20896;-65
2023/09/14 00:30:46;;;;;;;1.40;0.90;;;19.20;1.00;;;;;;5095410;28;20406;-65
2023/09/14 00:33:14;;;;;;;1.35;0.90;;;19.20;1.00;;;;;;5095226;28;20432;-65
2023/09/14 00:35:42;;;;;;;1.30;0.80;;;19.10;1.00;;;;;;5095188;28;20444;-65
2023/09/14 00:38:09;;;;;;;1.90;0.80;;;19.10;1.00;;;;;;5094940;28;20421;-65
2023/09/14 00:40:36;;;;;;;2.00;0.90;;;19.00;1.00;;;;;;5094714;28;20434;-65
2023/09/14 00:43:03;;;;;;;1.60;0.95;;;19.00;1.00;;;;;;5094781;28;20804;-64
2023/09/14 00:45:32;;;;;;;1.77;0.85;;;19.10;1.00;;;;;;5094945;28;20825;-65
2023/09/14 00:48:02;;;;;;;1.45;0.80;;;19.00;1.00;;;;;;5095212;28;20460;-65
2023/09/14 00:50:31;;;;;;;2.10;0.90;;;18.90;1.00;;;;;;5093197;28;20429;-66
2023/09/14 00:53:02;;;;;;;2.30;1.00;;;19.00;1.00;;;;;;5094563;28;20873;-65
2023/09/14 00:55:30;;;;;;;2.40;0.90;;;19.00;1.00;;;;;;5093891;28;20469;-65
2023/09/14 00:57:58;;;;;;;1.98;0.90;;;19.00;1.00;;;;;;5094436;28;20473;-65
2023/09/14 01:00:25;;;;;;;1.92;0.90;;;18.90;1.00;;;;;;5094756;28;20430;-65
2023/09/14 01:02:55;;;;;;;1.47;0.90;;;18.60;1.00;;;;;;5093908;28;20824;-65
2023/09/14 01:05:23;;;;;;;1.85;0.98;;;18.50;17.70;;;;;;5097185;28;20414;-65
2023/09/14 01:07:52;;;;;;;2.58;1.08;;;18.40;28.10;;;;;;5098212;28;20421;-64
2023/09/14 01:10:19;;;;;;;2.00;0.90;;;18.30;33.20;;;;;;5098149;28;20800;-65
2023/09/14 01:12:48;;;;;;;2.20;0.90;;;18.40;33.60;;;;;;5098133;28;20504;-64
2023/09/14 01:15:20;;;;;;;2.00;1.00;;;18.50;26.10;;;;;;5097622;28;20517;-65
2023/09/14 01:17:57;;;;;;;1.50;0.90;;;18.60;11.90;;;;;;5098112;28;20421;-64
2023/09/14 01:20:43;;;;;;;2.50;0.90;;;18.50;5.90;;;;;;5097572;28;20430;-65
2023/09/14 01:23:28;;;;;;;2.30;1.10;;;18.50;6.40;;;;;;5097891;28;20429;-65
2023/09/14 01:25:56;;;;;;;1.92;1.00;;;18.50;6.70;;;;;;5096746;28;20418;-65
2023/09/14 01:28:24;;;;;;;1.83;0.90;;;18.40;11.10;;;;;;5097299;28;20425;-64
2023/09/14 01:30:51;;;;;;;1.80;0.90;;;18.50;21.30;;;;;;5096752;28;20410;-65
2023/09/14 01:33:20;;;;;;;1.33;0.93;;;18.50;18.20;;;;;;5097572;28;20860;-64
2023/09/14 01:35:54;;;;;;;1.67;1.10;;;18.50;15.30;;;;;;5097620;28;20426;-64
2023/09/14 01:38:23;;;;;;;1.90;1.20;;;18.50;8.60;;;;;;5097891;28;20433;-65
2023/09/14 01:40:51;;;;;;;1.60;0.90;;;18.40;14.60;;;;;;5097347;28;20433;-65
2023/09/14 01:43:20;;;;;;;1.83;1.10;;;18.30;37.80;;;;;;5097443;28;20422;-65
2023/09/14 01:45:48;;;;;;;1.67;1.00;;;18.20;33.60;;;;;;5097068;28;20410;-65
2023/09/14 01:48:16;;;;;;;2.30;1.00;;;18.20;38.50;;;;;;5097451;28;20509;-64
2023/09/14 01:50:44;;;;;;;1.80;1.10;;;18.10;49.10;;;;;;5097503;28;20425;-65
2023/09/14 01:53:11;;;;;;;2.10;1.30;;;18.10;47.00;;;;;;5097373;28;20504;-64
2023/09/14 01:55:39;;;;;;;2.25;1.20;;;18.10;45.90;;;;;;5095974;28;20422;-65
2023/09/14 01:58:06;;;;;;;1.67;0.90;;;18.10;48.40;;;;;;5094954;28;20418;-65
2023/09/14 02:00:35;;;;;;;2.58;1.20;;;18.10;47.10;;;;;;5096144;28;20430;-64
2023/09/14 02:03:02;;;;;;;1.60;1.10;;;18.20;39.90;;;;;;5096951;28;20458;-65
2023/09/14 02:05:29;;;;;;;2.78;1.30;;;18.20;37.10;;;;;;5097160;28;20452;-65
2023/09/14 02:07:56;;;;;;;2.30;1.13;;;18.20;31.90;;;;;;5097398;28;20418;-65
2023/09/14 02:10:23;;;;;;;1.58;1.00;;;18.20;33.10;;;;;;5095646;28;20418;-65
2023/09/14 02:12:51;;;;;;;1.60;1.10;;;18.10;41.50;;;;;;5096376;28;20698;-65
2023/09/14 02:15:18;;;;;;;1.60;1.00;;;18.20;30.90;;;;;;5096129;28;20413;-64
2023/09/14 02:17:46;;;;;;;1.33;1.00;;;18.30;20.10;;;;;;5095905;28;20448;-64
2023/09/14 02:20:14;;;;;;;2.00;1.20;;;18.20;18.00;;;;;;5096980;28;20885;-65
2023/09/14 02:22:41;;;;;;;1.50;1.00;;;18.10;18.10;;;;;;5096842;28;20429;-64
2023/09/14 02:25:09;;;;;;;1.77;1.00;;;18.10;24.90;;;;;;5096242;28;20420;-63
2023/09/14 02:27:37;;;;;;;1.30;0.90;;;18.10;26.50;;;;;;5096790;28;20505;-64
2023/09/14 02:30:06;;;;;;;1.60;0.90;;;18.20;16.50;;;;;;5096897;28;20424;-65
2023/09/14 02:32:33;;;;;;;3.00;0.90;;;18.10;10.10;;;;;;5097015;28;20429;-64
2023/09/14 02:35:02;;;;;;;1.60;0.90;;;18.10;11.90;;;;;;5096625;28;20707;-66
2023/09/14 02:37:30;;;;;;;2.10;1.00;;;18.20;9.70;;;;;;5096233;28;20414;-63
2023/09/14 02:39:57;;;;;;;1.60;0.90;;;18.10;6.40;;;;;;5095634;28;20513;-64
2023/09/14 02:42:24;;;;;;;1.20;0.80;;;18.00;14.50;;;;;;5096345;28;20420;-65
2023/09/14 02:44:51;;;;;;;2.00;0.93;;;18.10;18.50;;;;;;5096910;28;20417;-64
2023/09/14 02:47:18;;;;;;;2.20;0.90;;;18.00;11.20;;;;;;5096499;28;20724;-65
2023/09/14 02:49:45;;;;;;;1.90;1.03;;;17.90;23.30;;;;;;5096663;28;20467;-65
2023/09/14 02:52:14;;;;;;;1.70;1.00;;;17.80;33.00;;;;;;5096296;28;20424;-65
2023/09/14 02:54:41;;;;;;;1.10;0.80;;;17.80;41.80;;;;;;5095458;28;20420;-65
2023/09/14 02:57:08;;;;;;;1.50;0.80;;;17.80;49.50;;;;;;5096480;28;20421;-65
2023/09/14 02:59:35;;;;;;;1.60;0.77;;;18.00;41.60;;;;;;5095511;28;20436;-66
2023/09/14 03:02:03;;;;;;;1.30;0.70;;;18.10;26.80;;;;;;5095895;28;20444;-65
2023/09/14 03:04:30;;;;;;;1.23;0.70;;;18.20;8.90;;;;;;5096242;28;20900;-65
2023/09/14 03:06:57;;;;;;;1.20;0.70;;;18.30;1.00;;;;;;5095888;28;20913;-63
2023/09/14 03:09:26;;;;;;;0.90;0.70;;;18.40;1.00;;;;;;5095822;28;20414;-64
2023/09/14 03:11:54;;;;;;;1.10;0.70;;;18.40;1.00;;;;;;5095817;28;20418;-65
2023/09/14 03:14:21;;;;;;;1.10;0.80;;;18.30;1.00;;;;;;5095533;28;20444;-65
2023/09/14 03:16:50;;;;;;;1.17;0.80;;;18.20;1.00;;;;;;5095967;28;20509;-65
2023/09/14 03:19:17;;;;;;;1.35;0.80;;;18.30;1.00;;;;;;5094635;28;20421;-66
2023/09/14 03:21:45;;;;;;;1.30;0.70;;;18.30;1.00;;;;;;5094757;28;20430;-64
2023/09/14 03:24:12;;;;;;;1.10;0.70;;;18.40;1.00;;;;;;5093847;28;20786;-65
2023/09/14 03:26:40;;;;;;;1.60;0.80;;;18.40;1.00;;;;;;5092471;28;20766;-65
2023/09/14 03:29:08;;;;;;;1.70;0.70;;;18.20;1.00;;;;;;5093030;28;20496;-65
2023/09/14 03:31:35;;;;;;;1.60;0.77;;;18.00;1.00;;;;;;5092764;28;20430;-65
2023/09/14 03:34:03;;;;;;;1.90;0.70;;;18.10;1.00;;;;;;5091671;28;20416;-64
2023/09/14 03:36:30;;;;;;;0.90;0.60;;;18.10;1.00;;;;;;5091971;28;20916;-65
2023/09/14 03:38:57;;;;;;;0.90;0.70;;;18.20;1.00;;;;;;5092834;28;20512;-64
2023/09/14 03:41:24;;;;;;;1.20;0.70;;;18.20;1.00;;;;;;5094522;28;20429;-65
2023/09/14 03:43:53;;;;;;;1.10;0.70;;;18.20;1.00;;;;;;5094909;28;20717;-64
2023/09/14 03:46:20;;;;;;;1.00;0.80;;;18.20;1.00;;;;;;5095142;28;20418;-65
2023/09/14 03:48:47;;;;;;;1.00;0.70;;;18.00;1.00;;;;;;5093205;28;20434;-65
2023/09/14 03:51:14;;;;;;;1.40;0.70;;;17.90;4.20;;;;;;5094580;28;20476;-64
2023/09/14 03:53:42;;;;;;;1.40;0.80;;;17.80;17.70;;;;;;5093712;28;20422;-64
2023/09/14 03:56:09;;;;;;;1.20;0.80;;;17.70;26.90;;;;;;5095068;28;20429;-65
2023/09/14 03:58:36;;;;;;;1.30;0.80;;;17.80;22.30;;;;;;5095275;28;20490;-64
2023/09/14 04:01:05;;;;;;;1.60;0.90;;;17.90;13.30;;;;;;5095103;28;20436;-64
2023/09/14 04:03:32;;;;;;;1.20;0.80;;;17.90;10.40;;;;;;5094460;28;20496;-65
2023/09/14 04:05:59;;;;;;;1.40;0.90;;;17.80;3.00;;;;;;5094409;28;20766;-65
2023/09/14 04:08:27;;;;;;;2.28;0.90;;;17.70;13.70;;;;;;5094945;28;20422;-65
2023/09/14 04:10:54;;;;;;;1.40;0.93;;;17.70;15.50;;;;;;5095319;28;20428;-63
2023/09/14 04:13:32;;;;;;;2.40;1.05;;;17.60;19.20;;;;;;5094776;28;20422;-64
2023/09/14 04:16:00;;;;;;;2.00;0.90;;;17.40;43.90;;;;;;5094055;28;20414;-64
2023/09/14 04:18:33;;;;;;;1.50;0.90;;;17.30;57.30;;;;;;5095292;28;20413;-65
2023/09/14 04:21:01;;;;;;;1.50;0.90;;;17.30;65.80;;;;;;5094572;28;21008;-64
2023/09/14 04:23:28;;;;;;;2.45;0.90;;;17.40;64.50;;;;;;5095113;28;20425;-64
2023/09/14 04:25:55;;;;;;;1.55;0.90;;;17.40;63.50;;;;;;5094670;28;20459;-65
2023/09/14 04:28:22;;;;;;;1.80;0.90;;;17.30;58.10;;;;;;5094274;28;20829;-65
2023/09/14 04:30:53;;;;;;;2.30;1.00;;;17.40;58.90;;;;;;5093099;28;20420;-64
2023/09/14 04:33:20;;;;;;;1.80;0.98;;;17.40;54.40;;;;;;5091018;28;20772;-64
2023/09/14 04:35:49;;;;;;;1.30;0.90;;;17.40;57.50;;;;;;5092738;28;20422;-64
2023/09/14 04:38:16;;;;;;;1.70;1.00;;;17.40;55.00;;;;;;5095617;28;20518;-65
2023/09/14 04:40:47;;;;;;;2.40;0.90;;;17.30;59.30;;;;;;5097453;28;20432;-64
2023/09/14 04:43:16;;;;;;;1.80;0.80;;;17.30;64.40;;;;;;5098006;28;20452;-64
2023/09/14 04:45:43;;;;;;;1.60;0.80;;;17.30;67.80;;;;;;5096957;28;20414;-65
2023/09/14 04:48:10;;;;;;;1.40;0.82;;;17.40;59.20;;;;;;5097606;28;20432;-64
2023/09/14 04:50:37;;;;;;;1.20;0.80;;;17.40;57.50;;;;;;5096430;28;20712;-64
2023/09/14 04:53:06;;;;;;;2.30;0.90;;;17.40;57.30;;;;;;5097877;28;20715;-64
2023/09/14 04:55:33;;;;;;;1.47;0.90;;;17.40;58.10;;;;;;5096379;28;20646;-64
2023/09/14 04:58:00;;;;;;;1.50;0.90;;;17.30;69.30;;;;;;5095094;28;20409;-62
2023/09/14 05:00:27;;;;;;;1.40;0.90;;;17.30;82.30;;;;;;5095833;28;20721;-62
2023/09/14 05:02:54;;;;;;;1.67;0.90;;;17.30;81.00;;;;;;5094316;28;20529;-62
2023/09/14 05:05:20;;;;;;;1.60;0.93;;;17.40;76.00;;;;;;5093298;28;20617;-66
2023/09/14 05:07:48;;;;;;;1.10;0.80;;;17.40;70.50;;;;;;5095475;28;20768;-66
2023/09/14 05:10:16;;;;;;;1.30;0.80;;;17.30;99.90;;;;;;5095268;28;20453;-66
2023/09/14 05:12:43;;;;;;;3.30;0.90;;;17.40;74.10;;;;;;5095610;28;20407;-65
2023/09/14 05:15:11;;;;;;;1.52;0.93;;;17.40;75.80;;;;;;5096325;28;20737;-64
2023/09/14 05:17:38;;;;;;;1.70;0.80;;;17.40;76.80;;;;;;5095252;28;20425;-64
2023/09/14 05:20:07;;;;;;;1.80;1.00;;;17.50;99.90;;;;;;5096919;28;20560;-66
2023/09/14 05:22:35;;;;;;;1.60;0.90;;;17.40;66.30;;;;;;5094415;28;20461;-64
2023/09/14 05:25:03;;;;;;;1.70;1.02;;;17.40;85.90;;;;;;5096442;28;20418;-64
2023/09/14 05:27:36;;;;;;;2.10;1.07;;;17.30;90.40;;;;;;5095798;28;20425;-64
2023/09/14 05:30:03;;;;;;;2.88;1.00;;;17.30;96.80;;;;;;5096209;28;20418;-64
2023/09/14 05:32:31;;;;;;;1.50;0.90;;;17.30;95.00;;;;;;5097238;28;20516;-65
2023/09/14 05:34:58;;;;;;;2.20;1.00;;;17.40;99.90;;;;;;5095862;28;20517;-64
2023/09/14 05:37:25;;;;;;;1.40;0.90;;;17.50;99.90;;;;;;5095650;28;20778;-64
2023/09/14 05:39:53;;;;;;;2.00;1.00;;;17.60;99.90;;;;;;5094932;28;20438;-65
2023/09/14 05:42:21;;;;;;;1.60;0.90;;;17.70;99.90;;;;;;5096794;28;20434;-65
2023/09/14 05:44:50;;;;;;;2.60;0.90;;;17.80;99.90;;;;;;5096114;28;20828;-65
2023/09/14 05:47:17;;;;;;;1.60;0.90;;;17.70;99.90;;;;;;5095088;28;20428;-65
2023/09/14 05:49:46;;;;;;;1.55;0.90;;;17.70;55.10;;;;;;5094523;28;20428;-64
2023/09/14 05:52:13;;;;;;;1.50;0.90;;;17.90;99.90;;;;;;5094412;28;20410;-64
2023/09/14 05:54:40;;;;;;;1.80;0.90;;;17.90;99.90;;;;;;5094252;28;20414;-65
2023/09/14 05:57:09;;;;;;;2.45;1.25;;;18.10;99.90;;;;;;5094836;28;20783;-65
2023/09/14 05:59:37;;;;;;;1.88;1.00;;;18.10;99.90;;;;;;5095601;28;20425;-66
2023/09/14 06:02:06;;;;;;;2.70;1.20;;;18.10;19.00;;;;;;5094212;28;20430;-65
2023/09/14 06:04:33;;;;;;;2.22;1.20;;;18.10;99.90;;;;;;5094981;28;20522;-65
2023/09/14 06:07:01;;;;;;;1.63;1.10;;;18.10;99.90;;;;;;5089155;28;20422;-64
2023/09/14 06:09:29;;;;;;;2.40;1.10;;;18.00;17.40;;;;;;5077443;28;20441;-65
2023/09/14 06:11:56;;;;;;;2.50;1.30;;;18.00;19.40;;;;;;5085454;28;20434;-66
2023/09/14 06:14:24;;;;;;;2.58;1.30;;;18.10;19.40;;;;;;5092156;28;20418;-66
2023/09/14 06:16:52;;;;;;;2.20;1.30;;;18.00;21.40;;;;;;5093388;28;20908;-65
2023/09/14 06:19:21;;;;;;;1.80;1.10;;;17.90;22.50;;;;;;5094177;28;20503;-66
2023/09/14 06:21:48;;;;;;;1.88;1.20;;;18.00;38.80;;;;;;5084129;28;20459;-67
2023/09/14 06:24:15;;;;;;;2.00;1.10;;;18.10;21.50;;;;;;5072216;28;20435;-67
2023/09/14 06:26:42;;;;;;;2.00;1.20;;;18.30;66.60;;;;;;5073523;28;20427;-67
2023/09/14 06:29:12;;;;;;;3.00;1.30;;;18.40;99.90;;;;;;5089250;28;20513;-66
2023/09/14 06:31:40;;;;;;;2.00;1.15;;;18.50;99.90;;;;;;5093120;28;20853;-67
2023/09/14 06:34:07;;;;;;;2.00;1.10;;;18.50;99.90;;;;;;5088736;28;20426;-66
2023/09/14 06:36:36;;;;;;;3.30;0.93;;;18.50;99.90;;;;;;5084106;28;20526;-65
2023/09/14 06:39:04;;;;;;;1.90;1.10;;;18.60;99.90;;;;;;5071240;28;20455;-62
2023/09/14 06:41:31;;;;;;;2.28;1.10;;;18.50;99.90;;;;;;5071982;28;20512;-62
2023/09/14 06:43:58;;;;;;;2.15;1.23;;;18.50;1.00;;;;;;5086405;28;20452;-62
2023/09/14 06:46:26;;;;;;;2.05;1.00;;;18.30;1.00;;;;;;5071665;28;20427;-62
2023/09/14 06:48:53;;;;;;;1.20;0.90;;;18.30;1.00;;;;;;5072519;28;20416;-62
2023/09/14 06:51:20;;;;;;;1.38;0.90;;;18.50;99.90;;;;;;5072940;28;20911;-61
2023/09/14 06:53:50;;;;;;;1.70;1.00;;;18.60;99.90;;;;;;5082183;28;20444;-61
2023/09/14 06:56:18;;;;;;;1.90;1.20;;;18.60;99.90;;;;;;5089815;28;20483;-61
2023/09/14 06:58:45;;;;;;;1.95;1.00;;;18.40;99.90;;;;;;5088007;28;20465;-61
2023/09/14 07:01:12;;;;;;;2.45;0.90;;;18.40;1.00;;;;;;5091304;28;20416;-61
2023/09/14 07:03:40;;;;;;;1.60;1.00;;;18.50;1.00;;;;;;5087346;28;20422;-61
2023/09/14 07:06:07;;;;;;;1.20;0.80;;;18.70;20.70;;;;;;5089451;28;20657;-62
2023/09/14 07:08:34;;;;;;;2.78;0.90;;;18.80;99.90;;;;;;5079996;28;20752;-66
2023/09/14 07:11:03;;;;;;;2.70;1.00;;;18.90;99.90;;;;;;5090631;28;20424;-65
2023/09/14 07:13:30;;;;;;;2.40;0.90;;;18.80;99.90;;;;;;5084876;28;20987;-66
2023/09/14 07:15:57;;;;;;;1.25;0.80;;;18.80;99.90;;;;;;5071038;28;20445;-65
2023/09/14 07:18:29;;;;;;;2.33;1.00;;;18.90;99.90;;;;;;5071129;28;20407;-66
2023/09/14 07:20:58;;;;;;;1.38;0.90;;;18.90;99.90;;;;;;5070840;28;20427;-66
2023/09/14 07:23:25;;;;;;;1.35;0.80;;;18.70;99.90;;;;;;5072378;28;20727;-65
2023/09/14 07:25:53;;;;;;;2.00;1.10;;;18.70;99.90;;;;;;5078626;28;20540;-66
2023/09/14 07:28:22;;;;;;;1.90;1.00;;;18.70;99.90;;;;;;5080053;28;20522;-66
2023/09/14 07:30:50;;;;;;;2.45;1.30;;;18.90;99.90;;;;;;5071999;28;20423;-67
2023/09/14 07:33:18;;;;;;;1.73;1.13;;;19.00;99.90;;;;;;5070982;28;20408;-66
2023/09/14 07:35:46;;;;;;;2.35;1.10;;;19.10;99.90;;;;;;5079187;28;20752;-66
2023/09/14 07:38:14;;;;;;;2.27;1.30;;;19.20;99.90;;;;;;5091963;28;20804;-67
2023/09/14 07:40:42;;;;;;;2.50;1.20;;;19.20;99.90;;;;;;5110027;28;20426;-64
2023/09/14 07:43:09;;;;;;;2.10;1.10;;;19.30;99.90;;;;;;5093223;28;20856;-64
2023/09/14 07:45:38;;;;;;;1.40;0.93;;;19.30;99.90;;;;;;5088693;28;20788;-66
2023/09/14 07:48:07;;;;;;;1.60;0.90;;;19.50;99.90;;;;;;5089218;28;20437;-65
2023/09/14 07:50:39;;;;;;;2.70;1.73;;;19.50;99.90;;;;;;5090315;28;20421;-65
2023/09/14 07:53:07;;;;;;;3.30;1.30;;;19.30;99.90;;;;;;5090712;28;20426;-65
2023/09/14 07:55:34;;;;;;;1.50;0.95;;;19.10;99.90;;;;;;5089380;28;20420;-65
2023/09/14 07:58:01;;;;;;;2.40;1.10;;;19.20;99.90;;;;;;5080430;28;20496;-66
2023/09/14 08:00:28;;;;;;;1.60;1.10;;;19.10;99.90;;;;;;5075871;28;20425;-66
2023/09/14 08:02:57;;;;;;;2.40;1.20;;;19.30;99.90;;;;;;5083233;28;20500;-66
2023/09/14 08:05:24;;;;;;;1.60;1.00;;;19.10;99.90;;;;;;5066414;28;20433;-66
2023/09/14 08:07:51;;;;;;;1.90;1.10;;;19.00;1.00;;;;;;5067463;28;20828;-67
2023/09/14 08:10:19;;;;;;;2.90;1.48;;;19.00;1.00;;;;;;5089002;28;20437;-67
2023/09/14 08:12:47;;;;;;;2.40;1.23;;;18.90;1.00;;;;;;5079656;28;20514;-65
2023/09/14 08:15:15;;;;;;;2.30;1.30;;;19.00;1.00;;;;;;5086118;28;20434;-66
2023/09/14 08:17:42;;;;;;;3.83;1.42;;;19.10;1.00;;;;;;5087683;28;20764;-65
2023/09/14 08:20:12;;;;;;;1.70;1.10;;;19.10;99.90;;;;;;5089970;28;20467;-66
2023/09/14 08:22:39;;;;;;;3.10;1.30;;;19.20;99.90;;;;;;5080530;28;20545;-65
2023/09/14 08:25:07;;;;;;;2.00;1.17;;;19.30;99.90;;;;;;5091033;28;20728;-64
2023/09/14 08:27:38;;;;;;;2.50;1.30;;;19.40;99.90;;;;;;5079445;28;20548;-65
2023/09/14 08:30:07;;;;;;;1.92;1.23;;;19.30;99.90;;;;;;5092525;28;20441;-66
2023/09/14 08:32:34;;;;;;;1.80;1.10;;;19.10;99.90;;;;;;5093497;28;20452;-66
2023/09/14 08:35:23;;;;;;;1.40;1.00;;;19.30;99.90;;;;;;5086645;28;20806;-65
2023/09/14 08:37:50;;;;;;;1.80;1.10;;;19.40;99.90;;;;;;5094523;28;20441;-65
2023/09/14 08:40:18;;;;;;;2.47;1.00;;;19.40;99.90;;;;;;5096004;28;20965;-66
2023/09/14 08:42:49;;;;;;;2.20;1.00;;;19.50;99.90;;;;;;5096080;28;20422;-66
2023/09/14 08:45:20;;;;;;;1.67;0.90;;;19.60;99.90;;;;;;5085390;28;20526;-66
2023/09/14 08:47:48;;;;;;;1.92;1.27;;;19.80;99.90;;;;;;5089780;28;20519;-65
2023/09/14 08:50:18;;;;;;;2.60;1.30;;;19.80;99.90;;;;;;5079913;28;20862;-63
2023/09/14 08:52:47;;;;;;;1.60;1.10;;;20.00;99.90;;;;;;5092110;28;20549;-66
2023/09/14 08:55:17;;;;;;;2.13;1.10;;;20.00;99.90;;;;;;5089195;28;20737;-65
2023/09/14 08:57:46;;;;;;;1.92;1.00;;;20.00;99.90;;;;;;5094868;28;20509;-65
2023/09/14 09:00:15;;;;;;;1.30;1.10;;;20.10;99.90;;;;;;5083088;28;20801;-66
2023/09/14 09:02:50;;;;;;;1.80;1.20;;;20.10;99.90;;;;;;5076776;28;20427;-66
2023/09/14 09:05:18;;;;;;;4.10;1.00;;;19.90;99.90;;;;;;5074114;28;20873;-66
2023/09/14 09:07:50;;;;;;;2.20;1.00;;;20.10;99.90;;;;;;5089769;28;20530;-65
2023/09/14 09:10:21;;;;;;;1.90;1.15;;;20.10;99.90;;;;;;5092366;28;20796;-65
2023/09/14 09:12:49;;;;;;;1.98;1.00;;;20.10;99.90;;;;;;5081613;28;20766;-66
2023/09/14 09:15:17;;;;;;;2.20;1.00;;;20.00;99.90;;;;;;5088757;28;20461;-66
2023/09/14 09:17:45;;;;;;;2.70;1.30;;;20.10;99.90;;;;;;5074812;28;20529;-65
2023/09/14 09:20:19;;;;;;;1.80;0.90;;;20.00;99.90;;;;;;5072388;28;20428;-66
2023/09/14 09:22:48;;;;;;;2.28;0.90;;;19.80;99.90;;;;;;5072382;28;20436;-66
2023/09/14 09:25:15;;;;;;;2.33;0.90;;;19.70;99.90;;;;;;5088138;28;20434;-66
2023/09/14 09:27:42;;;;;;;1.80;0.90;;;19.90;99.90;;;;;;5091168;28;20731;-65
2023/09/14 09:30:10;;;;;;;1.50;0.90;;;20.10;99.90;;;;;;5075829;28;20524;-66
2023/09/14 09:32:42;;;;;;;1.50;1.00;;;20.10;99.90;;;;;;5093433;28;20422;-66
2023/09/14 09:35:20;;;;;;;1.67;0.90;;;20.30;99.90;;;;;;5091900;28;20508;-65
2023/09/14 09:37:49;;;;;;;3.00;1.00;;;20.30;99.90;;;;;;5086869;28;20515;-66
2023/09/14 09:40:18;;;;;;;2.00;0.80;;;20.40;99.90;;;;;;5093202;28;20534;-65
2023/09/14 09:42:45;;;;;;;2.30;0.90;;;20.40;99.90;;;;;;5093646;28;20441;-66
2023/09/14 09:45:14;;;;;;;1.60;1.00;;;20.50;99.90;;;;;;5093044;28;20529;-66
2023/09/14 09:47:42;;;;;;;1.70;1.00;;;20.30;99.90;;;;;;5085760;28;20431;-66
2023/09/14 09:50:10;;;;;;;1.30;0.90;;;20.10;99.90;;;;;;5093624;28;20516;-66
2023/09/14 09:52:39;;;;;;;1.40;0.90;;;19.90;99.90;;;;;;5092666;28;20441;-66
2023/09/14 09:55:16;;;;;;;1.50;0.90;;;19.90;99.90;;;;;;5092133;28;20525;-64
2023/09/14 09:57:51;;;;;;;1.50;0.90;;;20.10;99.90;;;;;;5092271;28;20426;-67
2023/09/14 10:00:19;;;;;;;1.40;0.90;;;20.30;99.90;;;;;;5092479;28;20465;-66
2023/09/14 10:02:48;;;;;;;1.27;0.90;;;20.50;99.90;;;;;;5089409;28;20536;-68
2023/09/14 10:05:15;;;;;;;1.47;0.70;;;20.80;99.90;;;;;;5092557;28;20799;-66
2023/09/14 10:07:43;;;;;;;1.50;0.77;;;21.10;99.90;;;;;;5093472;28;20740;-68
2023/09/14 10:10:12;;;;;;;2.40;0.80;;;21.30;99.90;;;;;;5084588;28;20423;-66
2023/09/14 10:12:40;;;;;;;1.10;0.80;;;21.30;99.90;;;;;;5071325;28;20773;-66
2023/09/14 10:15:11;;;;;;;1.30;0.90;;;21.50;99.90;;;;;;5083678;28;20512;-66
2023/09/14 10:17:38;;;;;;;1.90;0.90;;;21.60;99.90;;;;;;5078869;28;20429;-65
2023/09/14 10:20:08;;;;;;;1.57;1.10;;;21.70;99.90;;;;;;5089454;28;20442;-65
2023/09/14 10:22:37;;;;;;;1.10;0.80;;;21.90;99.90;;;;;;5074678;28;20520;-66
2023/09/14 10:25:07;;;;;;;1.23;0.80;;;21.90;99.90;;;;;;5073758;28;20415;-66
2023/09/14 10:27:35;;;;;;;1.50;0.80;;;21.90;99.90;;;;;;5072317;28;20426;-67
2023/09/14 10:30:05;;;;;;;1.03;0.80;;;21.80;99.90;;;;;;5072489;28;20739;-67
2023/09/14 10:32:37;;;;;;;1.20;0.80;;;21.60;99.90;;;;;;5072857;28;20727;-67
2023/09/14 10:35:10;;;;;;;1.52;0.80;;;21.50;99.90;;;;;;5079099;28;20895;-66
2023/09/14 10:37:43;;;;;;;1.00;0.70;;;21.50;99.90;;;;;;5088652;28;20790;-66
2023/09/14 10:40:12;;;;;;;1.23;0.70;;;21.80;99.90;;;;;;5090990;28;20796;-68
2023/09/14 10:42:41;;;;;;;1.10;0.70;;;22.10;99.90;;;;;;5090876;28;20738;-67
2023/09/14 10:45:10;;;;;;;1.10;0.80;;;22.20;99.90;;;;;;5089477;28;20604;-67
2023/09/14 10:47:39;;;;;;;1.10;0.60;;;22.10;99.90;;;;;;5089507;28;20532;-67
2023/09/14 10:50:09;;;;;;;1.15;0.77;;;22.00;99.90;;;;;;5088778;28;20438;-68
2023/09/14 10:52:37;;;;;;;3.00;0.80;;;22.00;99.90;;;;;;5091126;28;20420;-67
2023/09/14 10:55:08;;;;;;;1.30;0.80;;;21.80;99.90;;;;;;5074736;28;20428;-66
2023/09/14 10:57:40;;;;;;;2.20;0.70;;;21.70;99.90;;;;;;5070130;28;20411;-67
2023/09/14 11:00:30;;;;;;;1.27;0.70;;;21.80;99.90;;;;;;5070219;28;20472;-68
2023/09/14 11:02:58;;;;;;;0.82;0.60;;;21.70;99.90;;;;;;5072790;28;20469;-67
2023/09/14 11:05:26;;;;;;;1.40;0.60;;;22.00;99.90;;;;;;5081827;28;20431;-68
2023/09/14 11:07:59;;;;;;;0.90;0.60;;;22.30;99.90;;;;;;5070216;28;20532;-67
2023/09/14 11:10:28;;;;;;;1.60;0.60;;;22.80;99.90;;;;;;5068601;28;20700;-68
2023/09/14 11:13:30;;;;;;;0.90;0.60;;;23.30;99.90;;;;;;5067895;28;20450;-68
2023/09/14 11:16:18;;;;;;;1.10;0.70;;;23.60;99.90;;;;;;5069940;28;20419;-68
2023/09/14 11:18:53;;;;;;;1.60;0.63;;;23.60;99.90;;;;;;5077362;28;20503;-68
2023/09/14 11:21:42;;;;;;;1.60;0.80;;;23.90;99.90;;;;;;5089905;28;20413;-68
2023/09/14 11:24:10;;;;;;;2.78;0.77;;;24.20;99.90;;;;;;5080974;28;20430;-68
2023/09/14 11:26:44;;;;;;;1.48;0.80;;;24.30;99.90;;;;;;5091767;28;20469;-68
2023/09/14 11:29:12;;;;;;;1.65;0.80;;;23.90;99.90;;;;;;5089670;28;20429;-69
2023/09/14 11:31:42;;;;;;;2.28;0.80;;;23.90;99.90;;;;;;5078544;28;20479;-68
2023/09/14 11:34:14;;;;;;;1.20;0.75;;;24.20;99.90;;;;;;5086618;28;20437;-68
2023/09/14 11:36:43;;;;;;;1.70;0.70;;;24.20;99.90;;;;;;5088107;28;20426;-69
2023/09/14 11:39:10;;;;;;;1.00;0.70;;;24.50;99.90;;;;;;5090608;28;20429;-69
2023/09/14 11:41:54;;;;;;;1.20;0.73;;;24.80;99.90;;;;;;5090591;28;20422;-70
2023/09/14 11:44:23;;;;;;;1.10;0.80;;;25.10;99.90;;;;;;5088983;28;20430;-69
2023/09/14 11:46:52;;;;;;;1.10;0.70;;;25.00;99.90;;;;;;5088805;28;20446;-70
2023/09/14 11:49:21;;;;;;;0.90;0.70;;;25.10;99.90;;;;;;5088226;28;20428;-70
2023/09/14 11:51:48;;;;;;;1.10;0.70;;;24.80;99.90;;;;;;5088876;28;20422;-69
2023/09/14 11:54:15;;;;;;;1.05;0.70;;;24.20;99.90;;;;;;5086220;28;20452;-68
2023/09/14 11:56:43;;;;;;;1.80;0.80;;;23.80;99.90;;;;;;5086909;28;20745;-69
2023/09/14 11:59:12;;;;;;;1.00;0.70;;;23.90;99.90;;;;;;5084897;28;20537;-70
2023/09/14 12:01:39;;;;;;;1.52;0.70;;;24.30;99.90;;;;;;5084636;28;20541;-67
2023/09/14 12:04:09;;;;;;;0.98;0.70;;;24.50;99.90;;;;;;5086680;28;20700;-68
2023/09/14 12:06:37;;;;;;;1.00;0.70;;;24.30;99.90;;;;;;5077666;28;20420;-67
2023/09/14 12:09:04;;;;;;;1.00;0.70;;;24.30;99.90;;;;;;5082479;28;20436;-68
2023/09/14 12:11:42;;;;;;;1.30;0.70;;;24.20;99.90;;;;;;5089277;28;20718;-68
2023/09/14 12:14:09;;;;;;;1.00;0.70;;;23.70;99.90;;;;;;5085430;28;20417;-67
2023/09/14 12:16:39;;;;;;;1.03;0.60;;;23.90;99.90;;;;;;5088667;28;20918;-69
2023/09/14 12:19:13;;;;;;;1.30;0.60;;;23.70;99.90;;;;;;5088209;28;20430;-68
2023/09/14 12:21:40;;;;;;;1.70;0.68;;;23.80;99.90;;;;;;5084795;28;20428;-68
2023/09/14 12:24:08;;;;;;;1.40;0.70;;;24.00;99.90;;;;;;5082291;28;20470;-68
2023/09/14 12:26:35;;;;;;;1.07;0.60;;;24.40;99.90;;;;;;5088009;28;20433;-67
2023/09/14 12:29:03;;;;;;;1.30;0.60;;;24.50;99.90;;;;;;5090214;28;20910;-68
2023/09/14 12:31:31;;;;;;;1.00;0.60;;;24.60;99.90;;;;;;5089887;28;21015;-68
2023/09/14 12:33:59;;;;;;;1.45;0.60;;;24.70;99.90;;;;;;5090545;28;20428;-66
2023/09/14 12:36:28;;;;;;;1.60;0.60;;;24.80;99.90;;;;;;5093164;28;20483;-67
2023/09/14 12:38:55;;;;;;;1.00;0.57;;;24.70;99.90;;;;;;5093066;28;20428;-67
2023/09/14 12:41:23;;;;;;;1.30;0.55;;;24.70;99.90;;;;;;5092146;28;20811;-67
2023/09/14 12:43:51;;;;;;;0.80;0.50;;;24.70;99.90;;;;;;5092513;28;20441;-69
2023/09/14 12:46:18;;;;;;;0.87;0.50;;;24.50;99.90;;;;;;5094317;28;20433;-67
2023/09/14 12:48:45;;;;;;;0.90;0.60;;;24.40;99.90;;;;;;5091336;28;20428;-66
2023/09/14 12:51:16;;;;;;;0.90;0.60;;;24.50;99.90;;;;;;5091768;28;20894;-67
2023/09/14 12:53:45;;;;;;;0.70;0.50;;;24.20;99.90;;;;;;5093220;28;20434;-67
2023/09/14 12:56:12;;;;;;;1.50;0.50;;;24.40;99.90;;;;;;5093445;28;20433;-67